FR8121 / EI-DYL 7700 Squawk Report (19th of March, 2019)

Aircraft B738 Reg No. EI-DYL Age 10 years old
Model 737 Jet engines 2 First flight 29-05-08
Registered 11-06-08 Rollout 21-05-08 Delivered 11-06-08
Construction No. 36574 Line No. 2635 Series 8AS
ADSHEX 4CA64E Airline name Ryanair Owner N/A
Airfield based Dublin~Co Dublin~EI First tracked 2017-07-13 08:06:00

Flight history for EI-DYL

Route Flight No Date Playback
Copenhagen Airport (CPH) - Alicante (ALC) FR4020 2019-04-24 13:58:00
Alicante (ALC) - Copenhagen Airport (CPH) FR4019 2019-04-24 10:44:00
Glasgow (GLA) - Alicante (ALC) FR2522 2019-04-24 07:01:00
Alicante (ALC) - Glasgow (GLA) FR2521 2019-04-23 17:29:00
Bristol (BRS) - Alicante (ALC) FR8296 2019-04-23 12:07:00
Alicante (ALC) - Gatwick (LGW) FR2714 2019-04-23 09:28:00
Bristol (BRS) - Alicante (ALC) FR8296 2019-04-23 06:25:00
Alicante (ALC) - Gatwick (LGW) FR2714 2019-04-22 15:52:00
Växjö Småland (VXO) - Alicante (ALC) FR7428 2019-04-22 13:31:00
Alicante (ALC) - Växjö Småland (VXO) FR7429 2019-04-22 07:58:00
Wroclaw Airport (WRO) - Alicante (ALC) FR9882 2019-04-22 04:45:00
Alicante (ALC) - Wroclaw Airport (WRO) FR9881 2019-04-21 17:36:00
Cork (ORK) - Alicante (ALC) FR4157 2019-04-21 12:03:00
Alicante (ALC) - Cork (ORK) FR4156 2019-04-21 09:00:00
Hamburg (HAM) - Alicante (ALC) FR4026 2019-04-21 06:32:00
Alicante (ALC) - Hamburg (HAM) FR4025 2019-04-20 16:57:00
Karmoy (HAU) - Alicante (ALC) FR5599 2019-04-20 14:02:00
Alicante (ALC) - Karmoy (HAU) FR5598 2019-04-20 09:40:00
Maastricht (MST) - Alicante (ALC) FR9043 2019-04-20 05:13:00
Alicante (ALC) - Maastricht (MST) FR9042 2019-04-19 18:26:00
Time Lat Lon Altitude Heading Speed Vertical Rate
2019-03-19 14:56:58 GMT 51.383511 -2.733154 0 33 15 0
2019-03-19 14:56:47 GMT 51.382793 -2.733387 0 351 16 0
2019-03-19 14:56:39 GMT 51.382263 -2.732983 0 300 15 0
2019-03-19 14:56:09 GMT 51.382393 -2.725639 0 267 67 0
2019-03-19 14:56:06 GMT 51.382477 -2.723789 0 267 84 0
2019-03-19 14:55:44 GMT 51.383194 -2.705532 275 267 134 -640
2019-03-19 14:55:35 GMT 51.383476 -2.697372 375 267 132 -704
2019-03-19 14:55:28 GMT 51.383755 -2.690048 450 267 131 -640
2019-03-19 14:55:18 GMT 51.384155 -2.680144 575 267 132 -704
2019-03-19 14:55:08 GMT 51.384594 -2.670212 725 266 133 -640
2019-03-19 14:54:57 GMT 51.384979 -2.660250 825 267 132 -640
2019-03-19 14:54:52 GMT 51.385162 -2.655574 875 267 133 -832
2019-03-19 14:54:44 GMT 51.385525 -2.646637 1,000 266 137 -960
2019-03-19 14:54:37 GMT 51.385849 -2.640457 1,075 267 145 -576
2019-03-19 14:54:34 GMT 51.386036 -2.636185 1,125 267 147 -704
2019-03-19 14:54:28 GMT 51.386261 -2.628999 1,250 268 150 -768
2019-03-19 14:54:24 GMT 51.386360 -2.625198 1,250 268 150 -768
2019-03-19 14:54:17 GMT 51.386581 -2.617864 1,450 267 154 -896
2019-03-19 14:54:14 GMT 51.386719 -2.613707 1,500 267 159 -768
2019-03-19 14:54:07 GMT 51.387012 -2.606125 1,500 267 160 -640
2019-03-19 14:54:04 GMT 51.387199 -2.601776 1,575 267 163 -960
2019-03-19 14:53:56 GMT 51.387497 -2.592922 1,650 267 163 -960
2019-03-19 14:53:53 GMT 51.387634 -2.589062 1,700 267 164 -960
2019-03-19 14:53:47 GMT 51.387955 -2.581787 1,800 266 165 -896
2019-03-19 14:53:43 GMT 51.388458 -2.571543 1,950 267 166 -896
2019-03-19 14:53:35 GMT 51.388550 -2.567609 1,975 267 166 -960
2019-03-19 14:53:31 GMT 51.388962 -2.558775 2,200 267 163 -640
2019-03-19 14:53:28 GMT 51.388962 -2.558775 2,100 266 167 -768
2019-03-19 14:53:22 GMT 51.389282 -2.551872 2,275 266 166 -704
2019-03-19 14:53:16 GMT 51.389809 -2.539520 2,275 267 159 -768
2019-03-19 14:53:12 GMT 51.389809 -2.539520 2,275 267 159 -768
2019-03-19 14:53:06 GMT 51.390198 -2.530864 2,375 266 159 -704
2019-03-19 14:53:02 GMT 51.390320 -2.527771 2,400 267 159 -512
2019-03-19 14:52:59 GMT 51.390507 -2.523117 2,450 270 160 -448
2019-03-19 14:52:55 GMT 51.390656 -2.519135 2,475 268 160 -512
2019-03-19 14:52:52 GMT 51.390701 -2.516240 2,500 269 160 -384
2019-03-19 14:52:47 GMT 51.390701 -2.506813 2,525 276 161 -384
2019-03-19 14:52:44 GMT 51.390656 -2.506293 2,550 273 161 -384
2019-03-19 14:52:41 GMT 51.390610 -2.503472 2,875 277 158 -384
2019-03-19 14:52:35 GMT 51.390224 -2.495575 2,650 279 162 -320
2019-03-19 14:52:32 GMT 51.389946 -2.491760 2,650 279 162 -320
2019-03-19 14:52:25 GMT 51.389191 -2.483504 2,700 277 160 -448
2019-03-19 14:52:20 GMT 51.388596 -2.474823 2,875 277 158 -384
2019-03-19 14:52:14 GMT 51.388367 -2.471330 2,775 278 159 -384
2019-03-19 14:52:09 GMT 51.387852 -2.465515 2,800 279 158 -576
2019-03-19 14:52:04 GMT 51.386856 -2.456038 2,900 297 161 -448
2019-03-19 14:51:58 GMT 51.385849 -2.451859 2,900 297 161 -448
2019-03-19 14:51:53 GMT 51.384293 -2.448021 2,950 310 164 -512
2019-03-19 14:51:50 GMT 51.382263 -2.444077 2,975 310 165 -384
2019-03-19 14:51:44 GMT 51.379147 -2.438126 3,025 311 165 -384
2019-03-19 14:51:41 GMT 51.378170 -2.436218 3,025 311 165 -320
2019-03-19 14:51:38 GMT 51.376354 -2.432861 3,050 314 166 -448
2019-03-19 14:51:33 GMT 51.373352 -2.428201 3,100 323 169 -384
2019-03-19 14:51:29 GMT 51.371464 -2.425919 3,125 332 170 -512
2019-03-19 14:51:25 GMT 51.366203 -2.422485 3,225 354 176 -576
2019-03-19 14:51:21 GMT 51.365601 -2.422256 3,225 358 177 -704
2019-03-19 14:51:15 GMT 51.360710 -2.421341 3,250 0 179 -704
2019-03-19 14:51:12 GMT 51.358757 -2.421341 3,275 2 179 -704
2019-03-19 14:51:09 GMT 51.355450 -2.421951 3,325 12 183 -640
2019-03-19 14:51:05 GMT 51.352661 -2.423302 3,375 37 194 -576
2019-03-19 14:51:02 GMT 51.350609 -2.424927 3,400 31 191 -640
2019-03-19 14:50:59 GMT 51.348038 -2.427533 3,425 39 195 -576
2019-03-19 14:50:56 GMT 51.343533 -2.435608 3,475 53 201 -576
2019-03-19 14:50:53 GMT 51.343533 -2.435608 3,500 58 203 -512
2019-03-19 14:50:50 GMT 51.342499 -2.438445 3,525 60 204 -512
2019-03-19 14:50:47 GMT 51.341675 -2.441266 3,550 67 208 -640
2019-03-19 14:50:44 GMT 51.340439 -2.446462 3,575 72 212 -576
2019-03-19 14:50:41 GMT 51.339531 -2.450943 3,600 72 212 -576
2019-03-19 14:50:37 GMT 51.337391 -2.461853 4,375 72 237 -1280
2019-03-19 14:50:34 GMT 51.337391 -2.461853 3,675 72 219 -448
2019-03-19 14:50:31 GMT 51.336365 -2.467025 3,700 72 221 -384
2019-03-19 14:50:27 GMT 51.335129 -2.473334 3,725 72 224 -576
2019-03-19 14:50:22 GMT 51.333481 -2.481574 3,800 71 228 -512
2019-03-19 14:50:19 GMT 51.332642 -2.485733 3,800 71 229 -512
2019-03-19 14:50:16 GMT 51.331375 -2.491818 3,850 71 231 -640
2019-03-19 14:50:11 GMT 51.329910 -2.499018 3,875 72 234 -1216
2019-03-19 14:50:08 GMT 51.327896 -2.508891 4,050 72 234 -1344
2019-03-19 14:50:05 GMT 51.327896 -2.508891 4,025 72 234 -1408
2019-03-19 14:49:59 GMT 51.326065 -2.518096 4,150 72 235 -1216
2019-03-19 14:49:56 GMT 51.325104 -2.522698 4,200 72 235 -1216
2019-03-19 14:49:52 GMT 51.323776 -2.529379 4,250 72 236 -1280
2019-03-19 14:49:49 GMT 51.322632 -2.535019 4,350 72 237 -1216
2019-03-19 14:49:46 GMT 51.321838 -2.538986 4,550 72 237 -1408
2019-03-19 14:49:43 GMT 51.320908 -2.543640 4,550 72 237 -1472
2019-03-19 14:49:39 GMT 51.318211 -2.556992 4,625 72 237 -1536
2019-03-19 14:49:35 GMT 51.318211 -2.556992 4,675 72 237 -1600
2019-03-19 14:49:32 GMT 51.315994 -2.567980 4,825 72 237 -960
2019-03-19 14:49:26 GMT 51.314857 -2.573624 4,875 72 240 -320
2019-03-19 14:49:20 GMT 51.312855 -2.583847 4,900 72 245 -320
2019-03-19 14:49:17 GMT 51.312157 -2.587280 4,925 72 248 -512
2019-03-19 14:49:14 GMT 51.311005 -2.593219 4,925 72 248 -576
2019-03-19 14:49:10 GMT 51.309769 -2.599454 4,950 72 249 -576
2019-03-19 14:49:07 GMT 51.308758 -2.604752 5,600 75 275 -2176
2019-03-19 14:49:04 GMT 51.305557 -2.620759 5,025 72 253 -512
2019-03-19 14:48:59 GMT 51.305557 -2.620759 5,050 73 267 -640
2019-03-19 14:48:56 GMT 51.304871 -2.624396 5,075 72 257 -512
2019-03-19 14:48:53 GMT 51.303726 -2.630186 5,100 72 259 -512
2019-03-19 14:48:50 GMT 51.302521 -2.636414 5,125 72 260 -512
2019-03-19 14:48:47 GMT 51.301437 -2.641915 5,175 72 263 -512
2019-03-19 14:48:44 GMT 51.300430 -2.647111 5,200 72 263 -576
2019-03-19 14:48:41 GMT 51.299561 -2.651565 5,200 72 265 -576
2019-03-19 14:48:37 GMT 51.296749 -2.666245 5,250 73 268 -640
2019-03-19 14:48:34 GMT 51.296539 -2.667377 5,300 73 270 -576
2019-03-19 14:48:29 GMT 51.294846 -2.676581 5,400 73 273 -640
2019-03-19 14:48:25 GMT 51.293839 -2.682000 5,375 73 274 -576
2019-03-19 14:48:21 GMT 51.290745 -2.698822 5,475 73 279 -704
2019-03-19 14:48:18 GMT 51.290745 -2.698822 5,475 73 279 -704
2019-03-19 14:48:14 GMT 51.289299 -2.706680 5,525 73 281 -832
2019-03-19 14:48:11 GMT 51.288601 -2.710648 5,550 73 282 -1152
2019-03-19 14:48:08 GMT 51.287437 -2.717056 5,625 73 282 -1280
2019-03-19 14:48:05 GMT 51.286137 -2.724304 5,700 74 282 -1792
2019-03-19 14:48:01 GMT 51.284878 -2.731476 5,800 74 281 -1792
2019-03-19 14:47:57 GMT 51.283482 -2.739487 5,875 74 280 -1792
2019-03-19 14:47:54 GMT 51.281853 -2.749023 6,075 74 279 -1792
2019-03-19 14:47:48 GMT 51.280380 -2.757420 6,175 74 279 -1792
2019-03-19 14:47:45 GMT 51.279465 -2.762987 6,275 74 278 -1856
2019-03-19 14:47:41 GMT 51.277817 -2.772489 6,425 74 277 -1984
2019-03-19 14:47:38 GMT 51.276901 -2.777982 6,450 74 277 -2112
2019-03-19 14:47:34 GMT 51.275753 -2.784653 6,600 74 275 -2176
2019-03-19 14:47:30 GMT 51.274796 -2.790527 6,775 75 274 -1984
2019-03-19 14:47:27 GMT 51.273743 -2.796763 6,825 74 273 -1728
2019-03-19 14:47:24 GMT 51.272690 -2.802998 6,975 75 274 -1088
2019-03-19 14:47:21 GMT 51.271225 -2.811609 7,025 74 275 -1088
2019-03-19 14:47:16 GMT 51.269840 -2.819824 7,125 74 276 -1216
2019-03-19 14:47:13 GMT 51.268707 -2.826530 7,175 74 276 -1216
2019-03-19 14:47:10 GMT 51.267563 -2.833252 7,225 74 277 -1280
2019-03-19 14:47:07 GMT 51.266911 -2.837143 7,275 74 277 -1280
2019-03-19 14:47:04 GMT 51.265839 -2.843475 7,350 74 278 -1280
2019-03-19 14:47:01 GMT 51.264679 -2.850210 7,375 74 279 -1280
2019-03-19 14:46:58 GMT 51.263927 -2.854614 7,450 74 279 -1280
2019-03-19 14:46:55 GMT 51.263031 -2.859786 7,550 74 279 -1280
2019-03-19 14:46:52 GMT 51.262020 -2.865753 7,550 74 279 -1280
2019-03-19 14:46:48 GMT 51.260487 -2.874527 7,675 74 281 -1344
2019-03-19 14:46:45 GMT 51.259460 -2.880496 7,725 74 281 -1280
2019-03-19 14:46:42 GMT 51.258087 -2.888514 7,800 74 281 -1280
2019-03-19 14:46:37 GMT 51.256577 -2.897421 7,925 74 283 -1216
2019-03-19 14:46:33 GMT 51.255341 -2.904622 7,950 74 284 -1280
2019-03-19 14:46:30 GMT 51.254154 -2.911453 8,125 74 284 -2112
2019-03-19 14:46:27 GMT 51.253178 -2.917099 8,275 74 284 -2176
2019-03-19 14:46:23 GMT 51.251778 -2.925186 8,475 74 284 -2176
2019-03-19 14:46:20 GMT 51.249035 -2.941360 8,600 74 284 -1856
2019-03-19 14:46:15 GMT 51.249035 -2.941360 8,625 74 284 -1856
2019-03-19 14:46:12 GMT 51.248108 -2.946563 8,700 74 284 -1792
2019-03-19 14:46:09 GMT 51.246754 -2.954254 8,750 74 285 -1792
2019-03-19 14:46:05 GMT 51.245075 -2.964020 8,975 74 286 -1920
2019-03-19 14:46:02 GMT 51.244377 -2.968063 9,025 74 287 -1856
2019-03-19 14:45:57 GMT 51.241104 -2.986500 9,200 74 289 -1408
2019-03-19 14:45:54 GMT 51.241104 -2.986500 9,275 74 290 -1472
2019-03-19 14:45:51 GMT 51.240467 -2.990189 9,425 74 292 -1792
2019-03-19 14:45:48 GMT 51.239445 -2.995987 9,400 74 293 -1856
2019-03-19 14:45:44 GMT 51.236847 -3.010551 9,575 74 296 -1280
2019-03-19 14:45:41 GMT 51.235580 -3.017731 9,650 74 296 -1152
2019-03-19 14:45:38 GMT 51.234043 -3.026123 9,700 73 299 -1088
2019-03-19 14:45:34 GMT 51.234043 -3.026123 9,750 73 300 -1088
2019-03-19 14:45:31 GMT 51.232864 -3.032523 9,850 73 302 -1152
2019-03-19 14:45:27 GMT 51.229752 -3.049820 9,900 73 307 -1088
2019-03-19 14:45:23 GMT 51.229752 -3.049820 9,950 74 309 -1088
2019-03-19 14:45:20 GMT 51.228737 -3.055496 9,975 73 311 -1152
2019-03-19 14:45:16 GMT 51.227341 -3.063507 10,050 73 314 -1152
2019-03-19 14:45:13 GMT 51.225571 -3.073273 10,150 73 318 -1088
2019-03-19 14:45:10 GMT 51.224594 -3.078690 10,175 74 319 -1088
2019-03-19 14:45:06 GMT 51.222015 -3.092800 10,275 73 324 -1024
2019-03-19 14:45:03 GMT 51.221878 -3.093691 10,275 74 326 -1152
2019-03-19 14:44:59 GMT 51.219799 -3.105316 10,400 74 330 -1408
2019-03-19 14:44:56 GMT 51.218449 -3.112793 10,500 74 333 -1728
2019-03-19 14:44:53 GMT 51.217098 -3.120346 10,550 74 334 -1856
2019-03-19 14:44:50 GMT 51.216309 -3.125076 10,800 74 334 -1856
2019-03-19 14:44:47 GMT 51.215282 -3.130798 10,700 74 336 -1664
2019-03-19 14:44:43 GMT 51.213547 -3.140828 10,825 74 338 -1856
2019-03-19 14:44:40 GMT 51.212265 -3.148548 10,975 74 338 -1920
2019-03-19 14:44:37 GMT 51.210754 -3.157159 11,050 74 339 -1792
2019-03-19 14:44:34 GMT 51.209930 -3.161984 11,150 74 339 -1728
2019-03-19 14:44:31 GMT 51.208557 -3.169704 11,200 74 339 -1728
2019-03-19 14:44:27 GMT 51.206764 -3.179779 11,325 73 340 -1728
2019-03-19 14:44:23 GMT 51.204666 -3.190860 11,400 72 340 -1728
2019-03-19 14:44:20 GMT 51.203659 -3.195611 11,500 60 339 -1920
2019-03-19 14:44:17 GMT 51.201645 -3.203506 11,600 66 340 -1856
2019-03-19 14:44:14 GMT 51.199127 -3.211517 11,775 58 338 -1984
2019-03-19 14:44:10 GMT 51.196800 -3.217468 11,825 55 337 -2048
2019-03-19 14:44:07 GMT 51.193123 -3.225479 11,950 49 336 -2048
2019-03-19 14:44:04 GMT 51.189865 -3.231430 12,050 43 335 -1984
2019-03-19 14:44:01 GMT 51.187866 -3.234583 12,200 39 334 -1984
2019-03-19 14:43:58 GMT 51.183701 -3.240447 12,200 37 334 -1984
2019-03-19 14:43:55 GMT 51.180725 -3.243936 12,325 33 333 -2048
2019-03-19 14:43:52 GMT 51.175507 -3.249132 12,500 29 333 -2112
2019-03-19 14:43:49 GMT 51.171661 -3.252250 12,550 23 331 -1856
2019-03-19 14:43:46 GMT 51.167725 -3.254997 12,625 21 332 -1792
2019-03-19 14:43:43 GMT 51.159931 -3.259430 12,850 18 332 -1728
2019-03-19 14:43:37 GMT 51.153507 -3.262863 12,925 18 334 -1600
2019-03-19 14:43:34 GMT 51.149971 -3.264694 12,975 18 335 -1536
2019-03-19 14:43:30 GMT 51.145267 -3.267136 13,100 18 336 -1600
2019-03-19 14:43:27 GMT 51.140808 -3.269398 13,150 18 337 -1984
2019-03-19 14:43:24 GMT 51.134605 -3.272629 13,275 18 338 -2240
2019-03-19 14:43:20 GMT 51.130142 -3.274965 13,450 18 338 -2240
2019-03-19 14:43:17 GMT 51.124237 -3.278083 13,550 18 338 -2112
2019-03-19 14:43:14 GMT 51.120071 -3.280310 13,650 18 338 -2048
2019-03-19 14:43:11 GMT 51.116501 -3.282166 13,700 16 339 -1856
2019-03-19 14:43:08 GMT 51.112335 -3.284244 13,775 17 339 -1792
2019-03-19 14:43:04 GMT 51.105373 -3.287277 13,950 13 339 -1984
2019-03-19 14:43:01 GMT 51.101990 -3.288401 14,150 9 339 -1984
2019-03-19 14:42:58 GMT 51.094898 -3.290253 14,175 8 339 -1984
2019-03-19 14:42:54 GMT 51.084888 -3.292618 14,300 8 341 -1920
2019-03-19 14:42:51 GMT 51.084888 -3.292618 14,400 8 341 -1856
2019-03-19 14:42:48 GMT 51.079304 -3.293915 14,500 8 342 -1792
2019-03-19 14:42:43 GMT 51.068596 -3.296432 14,675 8 344 -1728
2019-03-19 14:42:40 GMT 51.068596 -3.296432 14,725 8 344 -1792
2019-03-19 14:42:37 GMT 51.062622 -3.297828 14,800 8 345 -1984
2019-03-19 14:42:33 GMT 51.056305 -3.299239 15,550 7 346 -2368
2019-03-19 14:42:30 GMT 51.045227 -3.301773 15,100 8 346 -2112
2019-03-19 14:42:26 GMT 51.045227 -3.301773 15,275 7 346 -2112
2019-03-19 14:42:22 GMT 51.038589 -3.303322 15,475 7 346 -2304
2019-03-19 14:42:18 GMT 51.033821 -3.304367 15,425 7 346 -2368
2019-03-19 14:42:15 GMT 51.027145 -3.305771 15,600 7 346 -2368
2019-03-19 14:42:11 GMT 51.017296 -3.307877 15,800 7 346 -2304
2019-03-19 14:42:08 GMT 51.009384 -3.309631 15,925 7 347 -2304
2019-03-19 14:42:04 GMT 51.009384 -3.309631 16,425 7 347 -2112
2019-03-19 14:42:01 GMT 51.006542 -3.310242 16,050 7 346 -2368
2019-03-19 14:41:58 GMT 50.991272 -3.313599 16,300 7 347 -2304
2019-03-19 14:41:52 GMT 50.991272 -3.313599 16,450 7 347 -2880
2019-03-19 14:41:49 GMT 50.986198 -3.314743 16,675 7 345 -3584
2019-03-19 14:41:46 GMT 50.983032 -3.315430 17,125 8 343 -3840
2019-03-19 14:41:42 GMT 50.976704 -3.316803 16,950 8 342 -3904
2019-03-19 14:41:39 GMT 50.970795 -3.318168 17,225 8 339 -3200
2019-03-19 14:41:36 GMT 50.967087 -3.318985 17,325 7 338 -2304
2019-03-19 14:41:33 GMT 50.963062 -3.319855 17,525 7 338 -2304
2019-03-19 14:41:30 GMT 50.957794 -3.321063 17,625 7 338 -2240
2019-03-19 14:41:27 GMT 50.953751 -3.321915 18,250 2 338 -2176
2019-03-19 14:41:24 GMT 50.948456 -3.322993 17,825 5 337 -2176
2019-03-19 14:41:20 GMT 50.942276 -3.323958 18,050 3 337 -2176
2019-03-19 14:41:17 GMT 50.936646 -3.324552 18,050 2 337 -2176
2019-03-19 14:41:14 GMT 50.932617 -3.324890 18,400 2 338 -2240
2019-03-19 14:41:10 GMT 50.924789 -3.325443 18,325 2 338 -2176
2019-03-19 14:41:06 GMT 50.920441 -3.325814 18,450 2 338 -2240
2019-03-19 14:41:02 GMT 50.913250 -3.326340 18,600 2 338 -2240
2019-03-19 14:40:58 GMT 50.906708 -3.326853 19,150 2 340 -2240
2019-03-19 14:40:55 GMT 50.902954 -3.327150 18,825 2 338 -2176
2019-03-19 14:40:52 GMT 50.898262 -3.327560 19,175 2 339 -2176
2019-03-19 14:40:49 GMT 50.894165 -3.327818 19,450 2 340 -2176
2019-03-19 14:40:46 GMT 50.888859 -3.328247 19,175 2 340 -2240
2019-03-19 14:40:43 GMT 50.879745 -3.328932 20,050 2 343 -2112
2019-03-19 14:40:37 GMT 50.875637 -3.329163 19,575 2 341 -2240
2019-03-19 14:40:34 GMT 50.869957 -3.329620 19,600 2 341 -2240
2019-03-19 14:40:31 GMT 50.864326 -3.330002 19,850 2 342 -2176
2019-03-19 14:40:28 GMT 50.859249 -3.330307 19,850 2 342 -2176
2019-03-19 14:40:25 GMT 50.856400 -3.330491 19,925 2 342 -2112
2019-03-19 14:40:21 GMT 50.849148 -3.330917 20,175 2 344 -2112
2019-03-19 14:40:17 GMT 50.842167 -3.331375 20,425 2 344 -2048
2019-03-19 14:40:14 GMT 50.833275 -3.331909 20,400 2 344 -2112
2019-03-19 14:40:11 GMT 50.826897 -3.332291 20,450 2 344 -2048
2019-03-19 14:40:08 GMT 50.826897 -3.332291 20,550 2 345 -2048
2019-03-19 14:40:04 GMT 50.822754 -3.332569 20,650 1 345 -2048
2019-03-19 14:40:01 GMT 50.817352 -3.332825 20,725 1 345 -2048
2019-03-19 14:39:57 GMT 50.807114 -3.333359 20,950 1 346 -2048
2019-03-19 14:39:54 GMT 50.802338 -3.333608 21,100 1 347 -2048
2019-03-19 14:39:51 GMT 50.802338 -3.333608 21,300 1 347 -2048
2019-03-19 14:39:48 GMT 50.797211 -3.333831 21,200 1 347 -2048
2019-03-19 14:39:45 GMT 50.793365 -3.334054 21,275 1 347 -2112
2019-03-19 14:39:42 GMT 50.787888 -3.334274 21,500 1 348 -2112
2019-03-19 14:39:39 GMT 50.782425 -3.334499 21,500 1 348 -2112
2019-03-19 14:39:36 GMT 50.778252 -3.334656 21,675 1 349 -2112
2019-03-19 14:39:33 GMT 50.771175 -3.334885 21,750 1 349 -2112
2019-03-19 14:39:29 GMT 50.766006 -3.335114 21,975 1 350 -2112
2019-03-19 14:39:26 GMT 50.761780 -3.335241 21,950 1 350 -2112
2019-03-19 14:39:23 GMT 50.755966 -3.335390 22,125 1 351 -2112
2019-03-19 14:39:20 GMT 50.752075 -3.335538 22,200 1 351 -2112
2019-03-19 14:39:16 GMT 50.744934 -3.335687 22,275 1 351 -2112
2019-03-19 14:39:13 GMT 50.740078 -3.335876 22,400 1 352 -2112
2019-03-19 14:39:09 GMT 50.733261 -3.336058 22,575 1 353 -2112
2019-03-19 14:39:06 GMT 50.728348 -3.336182 22,750 1 353 -2112
2019-03-19 14:39:02 GMT 50.721828 -3.336411 22,750 1 354 -2112
2019-03-19 14:38:59 GMT 50.718571 -3.336487 22,875 1 354 -2112
2019-03-19 14:38:56 GMT 50.712341 -3.336726 22,950 1 354 -2048
2019-03-19 14:38:53 GMT 50.708096 -3.336868 24,275 359 361 -2048
2019-03-19 14:38:50 GMT 50.701172 -3.337023 23,275 1 356 -2048
2019-03-19 14:38:47 GMT 50.696922 -3.337173 23,325 1 356 -2048
2019-03-19 14:38:43 GMT 50.690643 -3.337394 23,475 1 357 -2112
2019-03-19 14:38:40 GMT 50.679428 -3.337839 23,675 1 358 -2112
2019-03-19 14:38:36 GMT 50.679428 -3.337839 23,650 1 358 -2112
2019-03-19 14:38:32 GMT 50.671783 -3.338089 23,875 0 359 -2048
2019-03-19 14:38:29 GMT 50.668808 -3.338181 23,925 0 360 -2048
2019-03-19 14:38:25 GMT 50.661530 -3.338254 24,100 359 364 -2112
2019-03-19 14:38:22 GMT 50.656517 -3.338211 24,150 359 361 -2048
2019-03-19 14:38:19 GMT 50.645157 -3.337765 24,400 359 362 -2176
2019-03-19 14:38:16 GMT 50.640503 -3.337543 24,550 359 362 -2176
2019-03-19 14:38:12 GMT 50.640503 -3.337543 24,575 359 363 -2176
2019-03-19 14:38:09 GMT 50.634449 -3.337246 24,675 359 363 -2176
2019-03-19 14:38:05 GMT 50.628754 -3.337025 24,825 359 363 -2112
2019-03-19 14:38:02 GMT 50.622395 -3.336726 24,900 359 364 -2112
2019-03-19 14:37:59 GMT 50.617691 -3.336578 25,000 359 364 -2112
2019-03-19 14:37:55 GMT 50.611591 -3.336281 25,125 359 365 -2112
2019-03-19 14:37:52 GMT 50.606892 -3.336132 25,225 359 365 -2112
2019-03-19 14:37:49 GMT 50.600464 -3.335868 25,925 359 371 -2048
2019-03-19 14:37:43 GMT 50.585587 -3.335146 25,675 359 368 -2176
2019-03-19 14:37:40 GMT 50.585587 -3.335146 25,675 359 368 -2176
2019-03-19 14:37:36 GMT 50.579800 -3.334944 25,800 359 370 -2112
2019-03-19 14:37:33 GMT 50.574051 -3.334712 25,900 359 369 -2112
2019-03-19 14:37:30 GMT 50.569290 -3.334495 25,950 359 369 -2112
2019-03-19 14:37:27 GMT 50.556976 -3.333989 26,175 359 370 -2112
2019-03-19 14:37:23 GMT 50.556976 -3.333989 26,750 359 372 -2048
2019-03-19 14:37:20 GMT 50.551865 -3.333757 26,450 359 371 -2048
2019-03-19 14:37:17 GMT 50.548096 -3.333628 26,450 359 372 -2048
2019-03-19 14:37:14 GMT 50.537434 -3.333163 26,650 359 373 -2048
2019-03-19 14:37:08 GMT 50.530838 -3.332905 26,800 359 374 -2176
2019-03-19 14:37:05 GMT 50.526356 -3.332717 26,950 359 375 -2176
2019-03-19 14:37:02 GMT 50.519806 -3.332471 27,025 359 375 -2176
2019-03-19 14:36:59 GMT 50.513882 -3.332198 27,075 359 376 -2176
2019-03-19 14:36:56 GMT 50.511475 -3.332110 27,150 359 376 -2176
2019-03-19 14:36:53 GMT 50.498245 -3.331604 27,450 359 377 -2176
2019-03-19 14:36:49 GMT 50.498245 -3.331604 27,450 359 378 -2176
2019-03-19 14:36:46 GMT 50.493347 -3.331387 27,575 359 378 -2176
2019-03-19 14:36:43 GMT 50.487076 -3.331170 27,675 359 378 -2112
2019-03-19 14:36:39 GMT 50.475521 -3.330713 27,875 359 379 -2112
2019-03-19 14:36:36 GMT 50.475521 -3.330713 27,925 359 380 -2112
2019-03-19 14:36:33 GMT 50.469933 -3.330491 28,100 359 381 -2048
2019-03-19 14:36:29 GMT 50.463226 -3.330231 28,200 359 381 -2048
2019-03-19 14:36:26 GMT 50.457596 -3.330014 28,300 359 382 -2048
2019-03-19 14:36:22 GMT 50.449814 -3.329725 28,450 359 383 -2048
2019-03-19 14:36:19 GMT 50.445557 -3.329508 28,575 359 383 -2048
2019-03-19 14:36:16 GMT 50.439880 -3.329291 28,850 359 385 -2048
2019-03-19 14:36:13 GMT 50.433857 -3.329080 28,850 359 386 -2048
2019-03-19 14:36:10 GMT 50.429214 -3.328857 28,825 359 386 -2048
2019-03-19 14:36:07 GMT 50.424957 -3.328713 30,000 359 404 -1024
2019-03-19 14:36:04 GMT 50.419235 -3.328496 29,100 359 393 -1024
2019-03-19 14:36:01 GMT 50.414932 -3.328279 29,125 359 389 -2112
2019-03-19 14:35:58 GMT 50.408432 -3.328062 29,275 359 390 -2048
2019-03-19 14:35:55 GMT 50.403038 -3.327818 29,400 359 391 -1856
2019-03-19 14:35:52 GMT 50.392548 -3.327412 30,750 359 392 -1600
2019-03-19 14:35:49 GMT 50.392548 -3.327412 29,575 359 393 -1216
2019-03-19 14:35:46 GMT 50.386047 -3.327195 29,600 359 393 -1088
2019-03-19 14:35:43 GMT 50.381348 -3.327002 29,700 359 394 -1024
2019-03-19 14:35:39 GMT 50.367874 -3.326400 29,775 359 394 -1024
2019-03-19 14:35:36 GMT 50.367874 -3.326400 29,800 359 394 -1024
2019-03-19 14:35:31 GMT 50.359131 -3.326111 29,875 359 395 -1024
2019-03-19 14:35:28 GMT 50.348190 -3.325605 30,025 359 395 -1024
2019-03-19 14:35:22 GMT 50.341263 -3.325369 30,100 359 396 -1024
2019-03-19 14:35:19 GMT 50.332466 -3.324997 30,075 359 396 -1024
2019-03-19 14:35:16 GMT 50.332466 -3.324997 30,125 359 397 -1024
2019-03-19 14:35:13 GMT 50.322968 -3.324626 30,225 359 397 -1024
2019-03-19 14:35:10 GMT 50.319626 -3.324448 30,275 359 397 -1024
2019-03-19 14:35:07 GMT 50.316360 -3.324329 30,275 359 397 -1024
2019-03-19 14:35:03 GMT 50.308258 -3.324032 30,400 359 398 -1024
2019-03-19 14:35:00 GMT 50.302734 -3.323798 30,425 359 398 -1024
2019-03-19 14:34:57 GMT 50.297607 -3.323581 30,425 359 398 -1024
2019-03-19 14:34:54 GMT 50.291359 -3.323290 30,475 359 398 -1024
2019-03-19 14:34:51 GMT 50.280327 -3.322845 30,650 359 399 -1088
2019-03-19 14:34:48 GMT 50.280327 -3.322845 30,625 359 399 -1088
2019-03-19 14:34:45 GMT 50.274811 -3.322641 30,650 359 399 -1088
2019-03-19 14:34:42 GMT 50.268906 -3.322425 30,725 359 399 -1088
2019-03-19 14:34:39 GMT 50.261894 -3.322102 30,775 359 400 -1024
2019-03-19 14:34:35 GMT 50.255630 -3.321846 31,200 359 404 -1024
2019-03-19 14:34:32 GMT 50.250458 -3.321557 30,900 359 401 -704
2019-03-19 14:34:28 GMT 50.244156 -3.321286 30,950 359 402 -512
2019-03-19 14:34:25 GMT 50.236710 -3.320915 31,000 359 403 -448
2019-03-19 14:34:20 GMT 50.223679 -3.320329 31,250 359 404 -1024
2019-03-19 14:34:14 GMT 50.211777 -3.319750 31,125 359 404 -1024
2019-03-19 14:34:11 GMT 50.211777 -3.319750 31,200 359 404 -896
2019-03-19 14:34:08 GMT 50.206512 -3.319533 31,200 359 404 -1024
2019-03-19 14:34:05 GMT 50.201294 -3.319317 31,375 359 404 -1024
2019-03-19 14:34:02 GMT 50.196075 -3.319100 32,000 359 404 -1024
2019-03-19 14:33:59 GMT 50.190079 -3.318811 31,350 359 404 -1024
2019-03-19 14:33:56 GMT 50.184128 -3.318594 31,400 359 405 -960
2019-03-19 14:33:53 GMT 50.174049 -3.318168 31,500 359 404 -1024
2019-03-19 14:33:50 GMT 50.167694 -3.317943 31,550 359 404 -1024
2019-03-19 14:33:47 GMT 50.167694 -3.317943 31,600 359 405 -960
2019-03-19 14:33:44 GMT 50.160965 -3.317727 31,625 359 404 -960
2019-03-19 14:33:41 GMT 50.150166 -3.317277 31,750 359 404 -960
2019-03-19 14:33:38 GMT 50.150166 -3.317277 31,750 359 404 -960
2019-03-19 14:33:35 GMT 50.144909 -3.317055 31,750 359 404 -960
2019-03-19 14:33:32 GMT 50.139694 -3.316906 31,800 359 405 -960
2019-03-19 14:33:28 GMT 50.132198 -3.316609 31,950 359 405 -960
2019-03-19 14:33:25 GMT 50.124390 -3.316353 31,900 359 405 -960
2019-03-19 14:33:22 GMT 50.120235 -3.316238 31,950 359 405 -960
2019-03-19 14:33:19 GMT 50.116150 -3.316064 32,125 352 399 -896
2019-03-19 14:33:16 GMT 50.107178 -3.315703 32,100 359 405 -960
2019-03-19 14:33:10 GMT 50.095917 -3.315269 32,200 359 406 -960
2019-03-19 14:33:07 GMT 50.086578 -3.314902 32,250 359 406 -896
2019-03-19 14:33:01 GMT 50.081318 -3.314679 32,350 359 406 -960
2019-03-19 14:32:57 GMT 50.073822 -3.314382 32,700 359 405 -960
2019-03-19 14:32:54 GMT 50.063690 -3.313968 32,475 359 406 -960
2019-03-19 14:32:48 GMT 50.058086 -3.313788 32,575 359 406 -960
2019-03-19 14:32:44 GMT 50.049103 -3.313417 32,625 359 404 -896
2019-03-19 14:32:41 GMT 50.043842 -3.313269 32,750 359 406 -960
2019-03-19 14:32:36 GMT 50.035217 -3.312884 32,700 359 405 -960
2019-03-19 14:32:33 GMT 50.028107 -3.312601 32,775 359 405 -960
2019-03-19 14:32:30 GMT 50.018425 -3.312229 32,825 359 405 -960
2019-03-19 14:32:27 GMT 50.018425 -3.312229 32,850 359 405 -960
2019-03-19 14:32:24 GMT 50.010544 -3.311944 32,900 359 404 -960
2019-03-19 14:32:21 GMT 50.007206 -3.311858 33,475 359 404 -960
2019-03-19 14:32:17 GMT 49.998966 -3.311561 33,075 359 404 -896
2019-03-19 14:32:14 GMT 49.993378 -3.311366 33,050 359 404 -896
2019-03-19 14:32:11 GMT 49.987049 -3.311116 33,100 359 404 -896
2019-03-19 14:32:07 GMT 49.980698 -3.310860 33,175 359 405 -896
2019-03-19 14:32:03 GMT 49.972458 -3.310571 33,225 359 405 -960
2019-03-19 14:32:00 GMT 49.968334 -3.310374 33,325 359 405 -960
2019-03-19 14:31:57 GMT 49.961243 -3.310065 33,300 359 405 -960
2019-03-19 14:31:54 GMT 49.954880 -3.309854 33,400 359 400 0
2019-03-19 14:31:50 GMT 49.948177 -3.309557 33,475 359 405 -960
2019-03-19 14:31:47 GMT 49.941788 -3.309342 33,500 359 405 -960
2019-03-19 14:31:43 GMT 49.929840 -3.308836 33,600 359 405 -1024
2019-03-19 14:31:40 GMT 49.929840 -3.308836 33,600 359 404 -1024
2019-03-19 14:31:36 GMT 49.922379 -3.308547 33,675 359 404 -1088
2019-03-19 14:31:33 GMT 49.916008 -3.308295 33,700 359 404 -1088
2019-03-19 14:31:30 GMT 49.909698 -3.308041 33,900 359 404 -128
2019-03-19 14:31:26 GMT 49.903347 -3.307776 33,975 359 404 -1024
2019-03-19 14:31:23 GMT 49.892921 -3.307404 33,975 359 403 -704
2019-03-19 14:31:17 GMT 49.886581 -3.307102 33,975 359 403 -448
2019-03-19 14:31:12 GMT 49.872017 -3.306514 34,000 359 403 0
2019-03-19 14:31:09 GMT 49.865314 -3.306217 34,000 359 403 0
2019-03-19 14:31:05 GMT 49.865314 -3.306217 34,000 359 403 0
2019-03-19 14:31:01 GMT 49.856781 -3.305873 34,000 359 403 0
2019-03-19 14:30:58 GMT 49.845997 -3.305400 34,000 359 403 0
2019-03-19 14:30:55 GMT 49.845997 -3.305400 34,000 359 402 0
2019-03-19 14:30:52 GMT 49.840034 -3.305177 34,000 359 403 0
2019-03-19 14:30:49 GMT 49.833332 -3.304881 34,000 359 402 0
2019-03-19 14:30:42 GMT 49.821461 -3.304435 34,000 359 402 0
2019-03-19 14:30:39 GMT 49.815857 -3.304210 34,000 359 402 0
2019-03-19 14:30:35 GMT 49.802887 -3.303693 34,000 359 402 0
2019-03-19 14:30:31 GMT 49.799561 -3.303488 34,000 359 402 0
2019-03-19 14:30:28 GMT 49.795807 -3.303343 34,000 359 402 0
2019-03-19 14:30:24 GMT 49.786549 -3.303025 34,000 359 401 0
2019-03-19 14:30:20 GMT 49.780243 -3.302765 34,000 359 401 0
2019-03-19 14:30:13 GMT 49.768764 -3.302282 34,000 359 401 0
2019-03-19 14:30:10 GMT 49.762436 -3.302042 34,000 359 401 0
2019-03-19 14:30:07 GMT 49.757263 -3.301825 34,000 359 401 0
2019-03-19 14:30:04 GMT 49.752090 -3.301681 34,000 359 401 0
2019-03-19 14:30:01 GMT 49.746513 -3.301466 34,000 359 401 0
2019-03-19 14:29:58 GMT 49.739857 -3.301169 34,000 359 401 0
2019-03-19 14:29:55 GMT 49.734329 -3.300958 34,000 359 401 0
2019-03-19 14:29:52 GMT 49.729523 -3.300798 34,000 359 400 0
2019-03-19 14:29:49 GMT 49.722118 -3.300501 34,000 359 400 0
2019-03-19 14:29:46 GMT 49.709885 -3.300018 34,000 359 400 0
2019-03-19 14:29:42 GMT 49.709885 -3.300018 34,000 359 400 64
2019-03-19 14:29:39 GMT 49.704712 -3.299874 34,000 359 400 64
2019-03-19 14:29:36 GMT 49.697727 -3.299610 34,000 359 400 0
2019-03-19 14:29:32 GMT 49.691814 -3.299387 34,000 359 400 -64
2019-03-19 14:29:29 GMT 49.686264 -3.299151 34,000 359 400 -64
2019-03-19 14:29:26 GMT 49.679943 -3.298942 34,000 359 400 0
2019-03-19 14:29:23 GMT 49.675507 -3.298790 34,000 359 400 0
2019-03-19 14:29:20 GMT 49.668137 -3.298500 34,000 359 400 0
2019-03-19 14:29:17 GMT 49.662964 -3.298284 34,000 359 400 0
2019-03-19 14:29:14 GMT 49.658901 -3.298125 34,000 359 400 0
2019-03-19 14:29:10 GMT 49.651501 -3.297828 34,000 359 400 0
2019-03-19 14:29:07 GMT 49.646332 -3.297680 34,000 359 400 0
2019-03-19 14:29:04 GMT 49.637833 -3.297344 34,000 359 400 0
2019-03-19 14:29:00 GMT 49.632275 -3.297086 34,000 359 400 0
2019-03-19 14:28:57 GMT 49.626022 -3.296910 34,000 359 400 0
2019-03-19 14:28:54 GMT 49.622314 -3.296766 34,000 359 400 0
2019-03-19 14:28:48 GMT 49.610115 -3.296270 34,000 359 400 0
2019-03-19 14:28:45 GMT 49.604946 -3.296121 34,000 359 400 0
2019-03-19 14:28:42 GMT 49.599781 -3.295898 34,000 359 400 0
2019-03-19 14:28:38 GMT 49.591633 -3.295602 34,000 359 400 0
2019-03-19 14:28:35 GMT 49.584641 -3.295392 34,000 359 400 0
2019-03-19 14:28:32 GMT 49.579109 -3.295156 34,000 359 400 0
2019-03-19 14:28:29 GMT 49.575760 -3.295031 34,000 359 400 0
2019-03-19 14:28:26 GMT 49.569855 -3.294814 34,000 359 400 0
2019-03-19 14:28:23 GMT 49.563560 -3.294562 34,000 359 400 0
2019-03-19 14:28:19 GMT 49.555801 -3.294308 34,000 352 401 -896
2019-03-19 14:28:14 GMT 49.541794 -3.293369 34,000 357 399 0
2019-03-19 14:28:11 GMT 49.541794 -3.293369 34,000 354 400 0
2019-03-19 14:28:08 GMT 49.536621 -3.292718 34,000 354 400 0
2019-03-19 14:28:05 GMT 49.530762 -3.291779 34,000 353 400 0
2019-03-19 14:28:02 GMT 49.523438 -3.290261 34,000 352 400 0
2019-03-19 14:27:58 GMT 49.517941 -3.288995 34,000 352 400 0
2019-03-19 14:27:55 GMT 49.513519 -3.288030 34,000 352 400 0
2019-03-19 14:27:52 GMT 49.507324 -3.286575 34,000 352 400 -384
2019-03-19 14:27:49 GMT 49.496338 -3.284117 34,000 352 400 -64
2019-03-19 14:27:46 GMT 49.496338 -3.284117 34,000 352 400 -192
2019-03-19 14:27:43 GMT 49.489014 -3.282382 34,025 352 401 -832
2019-03-19 14:27:37 GMT 49.480606 -3.280458 34,075 352 401 -896
2019-03-19 14:27:34 GMT 49.473995 -3.278899 34,125 352 401 -960
2019-03-19 14:27:28 GMT 49.458939 -3.275516 34,250 352 401 -896
2019-03-19 14:27:22 GMT 49.450150 -3.273492 34,350 352 401 -896
2019-03-19 14:27:19 GMT 49.447952 -3.272986 34,400 352 401 -896
2019-03-19 14:27:14 GMT 49.437313 -3.270585 34,450 352 401 -896
2019-03-19 14:27:11 GMT 49.432571 -3.269517 34,475 352 401 -896
2019-03-19 14:27:07 GMT 49.423782 -3.267517 34,550 352 400 -896
2019-03-19 14:27:04 GMT 49.417923 -3.266179 34,600 352 400 -896
2019-03-19 14:27:01 GMT 49.413898 -3.265252 34,625 352 400 -896
2019-03-19 14:26:58 GMT 49.400345 -3.262165 34,700 352 400 -896
2019-03-19 14:26:55 GMT 49.400345 -3.262165 34,725 352 399 -896
2019-03-19 14:26:51 GMT 49.396347 -3.261205 34,775 352 399 -896
2019-03-19 14:26:48 GMT 49.390869 -3.259982 34,875 352 397 -896
2019-03-19 14:26:45 GMT 49.385056 -3.258644 34,900 352 398 -896
2019-03-19 14:26:42 GMT 49.377399 -3.256868 34,925 352 397 -896
2019-03-19 14:26:39 GMT 49.374516 -3.256218 34,950 352 397 -896
2019-03-19 14:26:36 GMT 49.361801 -3.253291 35,050 352 396 -896
2019-03-19 14:26:33 GMT 49.357101 -3.252170 35,075 352 395 -832
2019-03-19 14:26:30 GMT 49.352776 -3.251158 35,200 352 394 -832
2019-03-19 14:26:24 GMT 49.344860 -3.249351 35,200 352 393 -896
2019-03-19 14:26:20 GMT 49.339508 -3.248080 35,225 352 393 -896
2019-03-19 14:26:17 GMT 49.334106 -3.246821 35,350 352 391 -896
2019-03-19 14:26:14 GMT 49.327682 -3.245376 35,300 352 390 -896
2019-03-19 14:26:11 GMT 49.322002 -3.244002 35,550 352 387 -896
2019-03-19 14:26:08 GMT 49.311722 -3.241671 35,500 352 383 -1024
2019-03-19 14:26:05 GMT 49.311722 -3.241671 35,500 352 386 -896
2019-03-19 14:26:02 GMT 49.307510 -3.240685 35,500 352 386 -896
2019-03-19 14:25:59 GMT 49.302917 -3.239666 35,625 352 383 -960
2019-03-19 14:25:56 GMT 49.291351 -3.236953 35,650 352 384 -960
2019-03-19 14:25:53 GMT 49.286064 -3.235763 35,675 352 383 -960
2019-03-19 14:25:50 GMT 49.281876 -3.234751 35,750 352 383 -1024
2019-03-19 14:25:44 GMT 49.275925 -3.233361 35,800 352 383 -1024
2019-03-19 14:25:40 GMT 49.269260 -3.231787 35,875 352 383 -1024
2019-03-19 14:25:37 GMT 49.264709 -3.230755 35,900 352 385 -1152
2019-03-19 14:25:33 GMT 49.256287 -3.228783 36,000 352 386 -1280
2019-03-19 14:25:30 GMT 49.250267 -3.227378 36,075 352 388 -1600
2019-03-19 14:25:27 GMT 49.245667 -3.226318 36,250 352 389 -1600
2019-03-19 14:25:22 GMT 49.237106 -3.224346 36,300 352 391 -1088
2019-03-19 14:25:19 GMT 49.231739 -3.223114 36,500 352 392 -1088
2019-03-19 14:25:15 GMT 49.225315 -3.221596 36,400 352 398 -1088
2019-03-19 14:25:11 GMT 49.217010 -3.219628 36,500 352 395 -1024
2019-03-19 14:25:08 GMT 49.213070 -3.218705 36,575 352 397 -1024
2019-03-19 14:25:05 GMT 49.200348 -3.215825 36,650 352 400 -1088
2019-03-19 14:25:01 GMT 49.200348 -3.215825 36,675 352 400 -1152
2019-03-19 14:24:58 GMT 49.194122 -3.214368 36,700 352 401 -1152
2019-03-19 14:24:54 GMT 49.186069 -3.212561 36,800 352 402 -1152
2019-03-19 14:24:51 GMT 49.175354 -3.210121 37,000 352 404 0
2019-03-19 14:24:48 GMT 49.175354 -3.210121 37,000 352 404 0
2019-03-19 14:24:44 GMT 49.168381 -3.208586 36,975 352 404 -64
2019-03-19 14:24:41 GMT 49.161724 -3.207068 37,000 352 404 0
2019-03-19 14:24:37 GMT 49.153198 -3.205191 37,000 352 404 0
2019-03-19 14:24:34 GMT 49.148026 -3.204064 37,000 352 404 0
2019-03-19 14:24:30 GMT 49.137329 -3.201720 37,000 353 402 0
2019-03-19 14:24:27 GMT 49.131416 -3.200419 37,000 352 404 0
2019-03-19 14:24:24 GMT 49.131416 -3.200419 37,000 353 403 0
2019-03-19 14:24:19 GMT 49.119595 -3.197889 37,000 353 402 0
2019-03-19 14:24:16 GMT 49.115917 -3.197094 37,000 353 403 0
2019-03-19 14:24:08 GMT 49.100784 -3.193852 37,000 353 402 0
2019-03-19 14:24:03 GMT 49.086044 -3.190824 37,000 353 402 0
2019-03-19 14:23:59 GMT 49.086044 -3.190824 37,000 353 402 0
2019-03-19 14:23:56 GMT 49.075012 -3.188500 37,000 353 402 0
2019-03-19 14:23:49 GMT 49.067642 -3.187021 37,000 353 401 0
2019-03-19 14:23:45 GMT 49.059170 -3.185240 37,000 352 401 0
2019-03-19 14:23:42 GMT 49.054413 -3.184134 37,000 354 400 0
2019-03-19 14:23:36 GMT 49.042316 -3.181771 37,000 359 399 0
2019-03-19 14:23:33 GMT 49.036404 -3.181120 37,000 7 397 0
2019-03-19 14:23:29 GMT 49.029793 -3.181048 37,000 1 398 0
2019-03-19 14:23:25 GMT 49.022049 -3.181598 37,000 6 397 0
2019-03-19 14:23:19 GMT 49.011154 -3.183782 37,000 11 397 0
2019-03-19 14:23:16 GMT 49.005775 -3.185457 37,000 15 396 0
2019-03-19 14:23:13 GMT 49.001492 -3.187047 37,000 21 396 0
2019-03-19 14:23:09 GMT 48.993484 -3.190824 37,000 20 396 0
2019-03-19 14:23:04 GMT 48.985615 -3.195504 37,000 24 396 0
2019-03-19 14:23:01 GMT 48.980621 -3.198993 37,000 36 398 0
2019-03-19 14:22:57 GMT 48.974808 -3.203641 37,000 33 397 0
2019-03-19 14:22:54 GMT 48.969131 -3.208853 37,000 35 397 0
2019-03-19 14:22:51 GMT 48.963970 -3.214151 37,000 36 398 0
2019-03-19 14:22:48 GMT 48.960480 -3.218199 37,000 39 399 0
2019-03-19 14:22:43 GMT 48.953171 -3.227595 37,000 42 399 0
2019-03-19 14:22:38 GMT 48.946373 -3.237931 37,000 48 401 0
2019-03-19 14:22:32 GMT 48.939926 -3.249488 37,000 57 404 -64
2019-03-19 14:22:29 GMT 48.935760 -3.258169 37,000 55 404 0
2019-03-19 14:22:26 GMT 48.933105 -3.264348 37,000 59 404 -64
2019-03-19 14:22:22 GMT 48.929718 -3.273151 37,000 67 408 0
2019-03-19 14:22:18 GMT 48.925518 -3.285924 37,000 65 407 0
2019-03-19 14:22:12 GMT 48.921608 -3.300813 37,000 74 411 0
2019-03-19 14:22:07 GMT 48.919094 -3.312884 37,000 75 412 0
2019-03-19 14:22:04 GMT 48.917416 -3.323003 37,000 82 416 0
2019-03-19 14:22:01 GMT 48.916306 -3.331534 37,000 81 415 0
2019-03-19 14:21:57 GMT 48.914623 -3.355311 37,000 96 424 0
2019-03-19 14:21:52 GMT 48.914623 -3.355311 37,000 88 420 0
2019-03-19 14:21:49 GMT 48.914566 -3.367732 37,000 123 441 -128
2019-03-19 14:21:43 GMT 48.915321 -3.384873 37,000 98 426 64
2019-03-19 14:21:40 GMT 48.915928 -3.391957 37,000 99 426 64
2019-03-19 14:21:36 GMT 48.917404 -3.404353 37,000 111 434 0
2019-03-19 14:21:32 GMT 48.919144 -3.414847 37,000 107 432 0
2019-03-19 14:21:29 GMT 48.920956 -3.423542 37,000 109 433 0
2019-03-19 14:21:26 GMT 48.927063 -3.445411 37,000 116 437 -64
2019-03-19 14:21:22 GMT 48.927063 -3.445411 37,000 118 438 -64
2019-03-19 14:21:19 GMT 48.929398 -3.451820 37,000 120 439 -128
2019-03-19 14:21:15 GMT 48.933571 -3.461778 37,000 124 442 -128
2019-03-19 14:21:11 GMT 48.938599 -3.471607 37,000 137 450 128
2019-03-19 14:21:08 GMT 48.943405 -3.479356 37,000 144 454 0
2019-03-19 14:21:04 GMT 48.949909 -3.488231 37,000 141 453 128
2019-03-19 14:21:00 GMT 48.960342 -3.500061 37,000 145 455 0
2019-03-19 14:20:51 GMT 48.972675 -3.512300 37,000 149 457 0
2019-03-19 14:20:45 GMT 48.984787 -3.522879 37,000 152 459 -64
2019-03-19 14:20:40 GMT 48.992340 -3.528795 37,000 152 460 0
2019-03-19 14:20:37 GMT 48.998093 -3.532972 37,000 156 461 0
2019-03-19 14:20:34 GMT 49.003098 -3.536471 37,000 156 461 0
2019-03-19 14:20:30 GMT 49.012199 -3.542151 37,000 158 462 64
2019-03-19 14:20:27 GMT 49.016556 -3.544781 37,000 160 463 64
2019-03-19 14:20:24 GMT 49.023418 -3.548439 37,000 162 464 0
2019-03-19 14:20:20 GMT 49.031563 -3.552487 37,000 163 465 0
2019-03-19 14:20:14 GMT 49.044388 -3.557880 37,000 166 466 0
2019-03-19 14:20:11 GMT 49.052372 -3.560727 37,000 168 467 0
2019-03-19 14:20:07 GMT 49.059120 -3.562823 37,000 171 467 0
2019-03-19 14:20:04 GMT 49.066360 -3.564711 37,000 171 468 0
2019-03-19 14:19:58 GMT 49.077930 -3.567160 37,000 173 468 0
2019-03-19 14:19:53 GMT 49.088699 -3.568796 37,000 176 468 0
2019-03-19 14:19:48 GMT 49.099045 -3.569712 37,000 178 469 0
2019-03-19 14:19:43 GMT 49.111176 -3.569993 37,000 181 470 64
2019-03-19 14:19:38 GMT 49.121613 -3.569641 37,000 183 470 0
2019-03-19 14:19:32 GMT 49.133743 -3.568585 36,950 184 470 0
2019-03-19 14:19:27 GMT 49.144180 -3.567599 37,000 184 470 0
2019-03-19 14:19:22 GMT 49.155441 -3.566542 37,000 184 470 0
2019-03-19 14:19:18 GMT 49.164093 -3.565697 37,000 184 471 0
2019-03-19 14:19:15 GMT 49.179321 -3.564196 37,000 184 472 64
2019-03-19 14:19:11 GMT 49.179321 -3.564196 37,000 184 471 -64
2019-03-19 14:19:08 GMT 49.187141 -3.563401 37,000 184 472 320
2019-03-19 14:19:05 GMT 49.194580 -3.562669 37,000 184 472 448
2019-03-19 14:19:01 GMT 49.200222 -3.562100 36,900 184 473 1216
2019-03-19 14:18:56 GMT 49.212463 -3.560944 36,900 184 473 1216
2019-03-19 14:18:53 GMT 49.219448 -3.560221 36,725 184 473 1088
2019-03-19 14:18:50 GMT 49.225548 -3.559643 36,600 184 474 1088
2019-03-19 14:18:45 GMT 49.245659 -3.557691 36,650 184 474 1088
2019-03-19 14:18:41 GMT 49.245659 -3.557691 36,625 184 474 1088
2019-03-19 14:18:36 GMT 49.256607 -3.556612 36,525 184 474 1024
2019-03-19 14:18:33 GMT 49.263206 -3.556029 36,425 184 475 1024
2019-03-19 14:18:30 GMT 49.268005 -3.555556 36,200 184 475 1088
2019-03-19 14:18:26 GMT 49.278988 -3.554439 36,375 184 475 1088
2019-03-19 14:18:23 GMT 49.284668 -3.553936 36,225 184 475 1024
2019-03-19 14:18:20 GMT 49.290802 -3.553302 36,250 184 475 1024
2019-03-19 14:18:16 GMT 49.300461 -3.552387 36,125 184 475 960
2019-03-19 14:18:13 GMT 49.305725 -3.551824 36,125 184 475 896
2019-03-19 14:18:10 GMT 49.314041 -3.551041 36,100 184 476 896
2019-03-19 14:18:06 GMT 49.322342 -3.550204 35,950 184 475 1024
2019-03-19 14:18:02 GMT 49.332001 -3.549288 35,900 184 475 1152
2019-03-19 14:17:53 GMT 49.350819 -3.547428 35,775 184 475 1216
2019-03-19 14:17:49 GMT 49.359570 -3.546560 35,725 184 475 1280
2019-03-19 14:17:45 GMT 49.367485 -3.545765 35,600 184 475 1280
2019-03-19 14:17:42 GMT 49.374069 -3.545133 35,475 184 476 1280
2019-03-19 14:17:39 GMT 49.381542 -3.544392 35,475 184 476 1280
2019-03-19 14:17:35 GMT 49.389412 -3.543669 35,275 184 476 1280
2019-03-19 14:17:28 GMT 49.405239 -3.542079 35,250 184 476 1280
2019-03-19 14:17:25 GMT 49.418015 -3.540837 35,100 184 477 1408
2019-03-19 14:17:18 GMT 49.428143 -3.539899 34,875 184 478 1472
2019-03-19 14:17:15 GMT 49.434769 -3.539260 34,875 184 478 1408
2019-03-19 14:17:12 GMT 49.449322 -3.537820 34,800 184 478 1472
2019-03-19 14:17:08 GMT 49.449322 -3.537820 34,750 184 478 1472
2019-03-19 14:17:04 GMT 49.459938 -3.536855 34,300 184 482 1600
2019-03-19 14:17:01 GMT 49.463882 -3.536441 34,600 184 479 1472
2019-03-19 14:16:57 GMT 49.472763 -3.535646 34,425 184 479 1472
2019-03-19 14:16:53 GMT 49.483383 -3.534634 34,375 184 480 1472
2019-03-19 14:16:50 GMT 49.488239 -3.534183 34,325 184 480 1472
2019-03-19 14:16:47 GMT 49.496201 -3.533366 34,300 184 480 1472
2019-03-19 14:16:44 GMT 49.503323 -3.532698 34,125 184 481 1472
2019-03-19 14:16:41 GMT 49.509514 -3.532104 34,100 184 481 1472
2019-03-19 14:16:37 GMT 49.518406 -3.531288 34,000 184 481 1472
2019-03-19 14:16:33 GMT 49.532604 -3.529952 33,850 184 481 1472
2019-03-19 14:16:27 GMT 49.541061 -3.529141 33,725 184 481 1408
2019-03-19 14:16:23 GMT 49.549072 -3.528346 33,650 184 482 1536
2019-03-19 14:16:20 GMT 49.555740 -3.527725 33,500 184 482 1600
2019-03-19 14:16:17 GMT 49.562393 -3.527117 33,525 184 482 1600
2019-03-19 14:16:14 GMT 49.570404 -3.526322 33,375 184 482 1536
2019-03-19 14:16:11 GMT 49.577065 -3.525721 33,325 184 482 1536
2019-03-19 14:16:08 GMT 49.582417 -3.525201 33,225 184 483 1536
2019-03-19 14:16:05 GMT 49.591354 -3.524310 33,150 184 483 1536
2019-03-19 14:16:01 GMT 49.598923 -3.523576 33,075 184 483 1536
2019-03-19 14:15:56 GMT 49.610069 -3.522529 32,925 184 483 1536
2019-03-19 14:15:52 GMT 49.617645 -3.521769 32,850 184 484 1536
2019-03-19 14:15:49 GMT 49.632843 -3.520323 31,425 184 484 1600
2019-03-19 14:15:46 GMT 49.632843 -3.520323 32,600 184 484 1600
2019-03-19 14:15:43 GMT 49.640419 -3.519634 32,575 184 484 1600
2019-03-19 14:15:40 GMT 49.644890 -3.519188 32,500 184 484 1600
2019-03-19 14:15:37 GMT 49.650696 -3.518588 32,375 184 484 1600
2019-03-19 14:15:34 GMT 49.660110 -3.517703 32,350 184 484 1600
2019-03-19 14:15:31 GMT 49.664581 -3.517258 32,275 184 484 1536
2019-03-19 14:15:28 GMT 49.680222 -3.515770 32,100 184 484 1472
2019-03-19 14:15:24 GMT 49.686493 -3.515119 31,950 184 484 1536
2019-03-19 14:15:21 GMT 49.686493 -3.515119 32,050 184 484 1536
2019-03-19 14:15:16 GMT 49.699905 -3.513818 31,875 184 484 1536
2019-03-19 14:15:13 GMT 49.706177 -3.513240 31,825 184 484 1536
2019-03-19 14:15:10 GMT 49.711533 -3.512734 31,425 184 484 1536
2019-03-19 14:15:07 GMT 49.719139 -3.511988 31,675 184 484 1536
2019-03-19 14:15:04 GMT 49.726311 -3.511320 31,575 184 484 1600
2019-03-19 14:15:01 GMT 49.743301 -3.509686 31,425 184 485 1536
2019-03-19 14:14:56 GMT 49.750469 -3.509018 31,350 184 484 1024
2019-03-19 14:14:53 GMT 49.750469 -3.509018 31,250 184 483 384
2019-03-19 14:14:47 GMT 49.763397 -3.507819 31,250 184 481 192
2019-03-19 14:14:44 GMT 49.770069 -3.507163 31,250 184 479 256
2019-03-19 14:14:41 GMT 49.777588 -3.506446 31,250 184 479 256
2019-03-19 14:14:38 GMT 49.791687 -3.505145 31,225 184 475 192
2019-03-19 14:14:31 GMT 49.799118 -3.504490 31,200 184 473 128
2019-03-19 14:14:27 GMT 49.807823 -3.503674 31,150 184 465 192
2019-03-19 14:14:24 GMT 49.814301 -3.503049 31,200 184 468 256
2019-03-19 14:14:21 GMT 49.821648 -3.502412 31,175 184 465 192
2019-03-19 14:14:14 GMT 49.836639 -3.501025 31,150 184 461 128
2019-03-19 14:14:11 GMT 49.842178 -3.500482 31,125 186 458 320
2019-03-19 14:14:08 GMT 49.848927 -3.499665 31,125 186 458 320
2019-03-19 14:14:03 GMT 49.859436 -3.497917 31,100 187 456 256
2019-03-19 14:14:00 GMT 49.864849 -3.496770 31,100 190 446 512
2019-03-19 14:13:57 GMT 49.879650 -3.493058 31,100 190 447 448
2019-03-19 14:13:53 GMT 49.879650 -3.493058 31,075 190 449 128
2019-03-19 14:13:48 GMT 49.888638 -3.490757 31,025 190 442 0
2019-03-19 14:13:42 GMT 49.900787 -3.487640 31,025 190 442 128
2019-03-19 14:13:39 GMT 49.908051 -3.485784 31,000 190 441 0
2019-03-19 14:13:36 GMT 49.914474 -3.484151 31,000 190 441 0
2019-03-19 14:13:33 GMT 49.921326 -3.482449 31,000 190 441 0
2019-03-19 14:13:30 GMT 49.926956 -3.481004 31,000 190 441 0
2019-03-19 14:13:27 GMT 49.931419 -3.479845 31,000 190 442 0
2019-03-19 14:13:24 GMT 49.938633 -3.477989 31,000 190 442 0
2019-03-19 14:13:21 GMT 49.943069 -3.476884 31,000 190 442 0
2019-03-19 14:13:17 GMT 49.952774 -3.474426 31,000 190 443 64
2019-03-19 14:13:14 GMT 49.958450 -3.472981 31,000 190 443 0
2019-03-19 14:13:11 GMT 49.963303 -3.471752 31,000 190 443 64
2019-03-19 14:13:08 GMT 49.970581 -3.469945 31,000 190 443 64
2019-03-19 14:13:05 GMT 49.976620 -3.468413 30,975 190 445 0
2019-03-19 14:13:02 GMT 49.983929 -3.466558 30,975 190 445 0
2019-03-19 14:12:57 GMT 49.992123 -3.464479 30,975 190 449 0
2019-03-19 14:12:54 GMT 50.000702 -3.462356 30,975 190 459 0
2019-03-19 14:12:51 GMT 50.006470 -3.460910 30,975 190 452 0
2019-03-19 14:12:47 GMT 50.013489 -3.459134 30,975 190 454 0
2019-03-19 14:12:44 GMT 50.020100 -3.457427 30,975 190 455 0
2019-03-19 14:12:41 GMT 50.026337 -3.455923 30,975 190 456 0
2019-03-19 14:12:38 GMT 50.032578 -3.454309 30,975 190 457 0
2019-03-19 14:12:35 GMT 50.038010 -3.452960 30,975 190 460 0
2019-03-19 14:12:31 GMT 50.054855 -3.448695 30,975 190 463 0
2019-03-19 14:12:28 GMT 50.054855 -3.448695 30,975 190 464 0
2019-03-19 14:12:25 GMT 50.065842 -3.445876 31,000 190 474 64
2019-03-19 14:12:22 GMT 50.065842 -3.445876 30,975 190 473 64
2019-03-19 14:12:19 GMT 50.072662 -3.444142 31,000 190 469 0
2019-03-19 14:12:16 GMT 50.078613 -3.442551 31,000 190 469 0
2019-03-19 14:12:13 GMT 50.086349 -3.440600 31,000 190 474 64
2019-03-19 14:12:10 GMT 50.097980 -3.437533 30,975 190 476 64
2019-03-19 14:12:07 GMT 50.103653 -3.436046 30,975 190 478 -64
2019-03-19 14:12:01 GMT 50.111900 -3.433896 31,000 190 480 -64
2019-03-19 14:11:58 GMT 50.118484 -3.432143 31,000 190 481 0
2019-03-19 14:11:55 GMT 50.123749 -3.430770 31,000 190 481 0
2019-03-19 14:11:52 GMT 50.131668 -3.428674 31,000 190 481 64
2019-03-19 14:11:48 GMT 50.140858 -3.426250 31,000 190 481 64
2019-03-19 14:11:45 GMT 50.146118 -3.424914 31,000 190 481 0
2019-03-19 14:11:42 GMT 50.154030 -3.422835 31,000 190 481 64
2019-03-19 14:11:39 GMT 50.162338 -3.420579 31,000 187 468 1408
2019-03-19 14:11:34 GMT 50.172421 -3.417936 30,975 190 479 960
2019-03-19 14:11:31 GMT 50.176346 -3.416893 30,925 190 478 1216
2019-03-19 14:11:28 GMT 50.183731 -3.414892 30,875 190 478 1216
2019-03-19 14:11:24 GMT 50.191601 -3.412814 30,725 190 477 1408
2019-03-19 14:11:21 GMT 50.198536 -3.410958 30,700 190 477 1408
2019-03-19 14:11:18 GMT 50.205471 -3.409176 30,625 190 477 1408
2019-03-19 14:11:14 GMT 50.214176 -3.406875 30,550 190 476 1344
2019-03-19 14:11:11 GMT 50.220703 -3.405111 30,450 190 476 1408
2019-03-19 14:11:08 GMT 50.226746 -3.403521 30,400 190 476 1408
2019-03-19 14:11:03 GMT 50.238052 -3.400558 30,300 190 475 1472
2019-03-19 14:11:00 GMT 50.243225 -3.399184 30,225 190 475 1344
2019-03-19 14:10:57 GMT 50.250580 -3.397299 30,100 190 475 1344
2019-03-19 14:10:54 GMT 50.256226 -3.395860 30,050 190 474 1344
2019-03-19 14:10:51 GMT 50.264008 -3.393836 29,650 189 471 1344
2019-03-19 14:10:48 GMT 50.270920 -3.392101 29,975 190 474 1408
2019-03-19 14:10:45 GMT 50.276962 -3.390583 29,825 190 472 1408
2019-03-19 14:10:41 GMT 50.284744 -3.388632 29,575 189 472 1408
2019-03-19 14:10:38 GMT 50.292057 -3.386907 29,600 189 471 1344
2019-03-19 14:10:34 GMT 50.300262 -3.385090 29,650 188 472 1344
2019-03-19 14:10:30 GMT 50.310215 -3.383269 29,525 187 470 1408
2019-03-19 14:10:27 GMT 50.316265 -3.382304 29,475 187 470 1408
2019-03-19 14:10:24 GMT 50.329651 -3.380103 29,350 187 469 1408
2019-03-19 14:10:21 GMT 50.329651 -3.380103 29,275 187 469 1408
2019-03-19 14:10:15 GMT 50.347733 -3.377067 29,050 187 467 1408
2019-03-19 14:10:12 GMT 50.347733 -3.377067 29,075 187 467 1408
2019-03-19 14:10:09 GMT 50.353321 -3.376143 28,950 187 467 1408
2019-03-19 14:10:05 GMT 50.362335 -3.374610 28,950 187 466 1408
2019-03-19 14:10:02 GMT 50.368729 -3.373619 28,925 187 466 1408
2019-03-19 14:09:59 GMT 50.375153 -3.372514 28,750 187 465 1472
2019-03-19 14:09:56 GMT 50.382416 -3.371318 28,700 187 464 1472
2019-03-19 14:09:53 GMT 50.387970 -3.370418 28,600 187 464 1408
2019-03-19 14:09:50 GMT 50.393967 -3.369406 28,350 187 461 1536
2019-03-19 14:09:47 GMT 50.400337 -3.368349 28,450 187 462 1472
2019-03-19 14:09:44 GMT 50.408859 -3.366938 28,425 187 461 1536
2019-03-19 14:09:41 GMT 50.414383 -3.366081 28,375 187 461 1536
2019-03-19 14:09:38 GMT 50.419464 -3.365213 28,275 187 461 1536
2019-03-19 14:09:34 GMT 50.429626 -3.363479 28,175 187 460 1472
2019-03-19 14:09:31 GMT 50.435951 -3.362410 27,175 187 452 1728
2019-03-19 14:09:28 GMT 50.441864 -3.361445 28,025 187 459 1536
2019-03-19 14:09:25 GMT 50.448166 -3.360371 27,950 187 458 1536
2019-03-19 14:09:22 GMT 50.454479 -3.359293 27,900 187 458 1536
2019-03-19 14:09:19 GMT 50.459106 -3.358492 27,775 187 457 1472
2019-03-19 14:09:16 GMT 50.467094 -3.357140 27,700 187 456 1536
2019-03-19 14:09:13 GMT 50.473389 -3.356034 27,650 187 455 1664
2019-03-19 14:09:10 GMT 50.480503 -3.354839 27,600 187 455 1664
2019-03-19 14:09:07 GMT 50.484238 -3.354155 27,450 187 454 1664
2019-03-19 14:09:03 GMT 50.493439 -3.352565 27,400 187 454 1664
2019-03-19 14:09:00 GMT 50.500519 -3.351350 27,250 187 451 1728
2019-03-19 14:08:53 GMT 50.515091 -3.348734 27,075 187 451 1728
2019-03-19 14:08:50 GMT 50.521282 -3.347638 26,975 187 451 1792
2019-03-19 14:08:47 GMT 50.526264 -3.346747 26,975 187 451 1792
2019-03-19 14:08:44 GMT 50.534550 -3.345337 26,775 187 450 1792
2019-03-19 14:08:38 GMT 50.546978 -3.343110 26,550 187 449 1856
2019-03-19 14:08:33 GMT 50.556057 -3.341477 26,550 187 449 1856
2019-03-19 14:08:30 GMT 50.563457 -3.340141 26,450 187 448 1920
2019-03-19 14:08:26 GMT 50.570908 -3.338805 26,225 187 448 1920
2019-03-19 14:08:23 GMT 50.576248 -3.337892 26,175 187 448 1920
2019-03-19 14:08:20 GMT 50.583664 -3.336591 26,100 187 448 1920
2019-03-19 14:08:17 GMT 50.590645 -3.335316 26,025 187 447 1920
2019-03-19 14:08:13 GMT 50.598839 -3.333905 25,825 187 446 2048
2019-03-19 14:08:10 GMT 50.604218 -3.332977 25,800 187 446 2048
2019-03-19 14:08:06 GMT 50.613640 -3.331307 25,525 187 445 1856
2019-03-19 14:08:00 GMT 50.623463 -3.329600 25,450 186 433 2112
2019-03-19 14:07:57 GMT 50.629143 -3.328560 25,350 187 444 1920
2019-03-19 14:07:54 GMT 50.638126 -3.327002 25,275 187 443 1920
2019-03-19 14:07:49 GMT 50.646275 -3.325591 25,100 187 442 1920
2019-03-19 14:07:45 GMT 50.659264 -3.323364 24,200 186 435 2048
2019-03-19 14:07:39 GMT 50.666977 -3.322063 24,775 187 441 1920
2019-03-19 14:07:36 GMT 50.672653 -3.321137 24,550 186 440 1856
2019-03-19 14:07:33 GMT 50.679512 -3.320007 24,575 187 439 1856
2019-03-19 14:07:30 GMT 50.685146 -3.319016 24,525 187 439 1856
2019-03-19 14:07:27 GMT 50.689987 -3.318253 24,450 187 438 1856
2019-03-19 14:07:24 GMT 50.695621 -3.317261 24,325 187 437 1920
2019-03-19 14:07:21 GMT 50.704464 -3.315811 23,475 186 436 1984
2019-03-19 14:07:18 GMT 50.715317 -3.314085 24,075 186 436 1984
2019-03-19 14:07:15 GMT 50.715317 -3.314085 23,975 186 435 2048
2019-03-19 14:07:12 GMT 50.721317 -3.313065 23,900 186 435 2048
2019-03-19 14:07:09 GMT 50.728088 -3.312007 23,475 186 434 2048
2019-03-19 14:07:06 GMT 50.735275 -3.310819 23,750 186 434 2112
2019-03-19 14:07:03 GMT 50.740860 -3.309928 23,675 186 433 2112
2019-03-19 14:07:00 GMT 50.750381 -3.308369 23,500 186 431 2112
2019-03-19 14:06:57 GMT 50.752762 -3.307998 21,025 186 418 2496
2019-03-19 14:06:53 GMT 50.758347 -3.307033 23,250 186 431 2112
2019-03-19 14:06:50 GMT 50.765865 -3.305817 23,125 186 430 2112
2019-03-19 14:06:46 GMT 50.772583 -3.304732 23,000 187 429 2176
2019-03-19 14:06:43 GMT 50.778076 -3.303841 22,900 187 428 2176
2019-03-19 14:06:39 GMT 50.791843 -3.301544 22,700 187 427 2176
2019-03-19 14:06:33 GMT 50.805588 -3.299239 22,425 186 422 2176
2019-03-19 14:06:29 GMT 50.805588 -3.299239 22,350 186 425 2240
2019-03-19 14:06:26 GMT 50.811813 -3.298200 22,325 186 425 2240
2019-03-19 14:06:23 GMT 50.819218 -3.296967 22,150 186 422 2176
2019-03-19 14:06:16 GMT 50.831692 -3.294983 21,025 186 418 2496
2019-03-19 14:06:13 GMT 50.840210 -3.293533 21,825 186 422 2176
2019-03-19 14:06:09 GMT 50.846786 -3.292484 21,525 186 419 2496
2019-03-19 14:06:06 GMT 50.851009 -3.291779 21,550 186 419 2496
2019-03-19 14:06:02 GMT 50.858738 -3.290558 21,225 186 418 2496
2019-03-19 14:05:58 GMT 50.867210 -3.289185 21,175 186 418 2496
2019-03-19 14:05:55 GMT 50.876431 -3.287735 21,025 186 418 2496
2019-03-19 14:05:49 GMT 50.882572 -3.286819 18,000 181 387 2240
2019-03-19 14:05:46 GMT 50.891373 -3.285729 20,750 184 416 2496
2019-03-19 14:05:43 GMT 50.900574 -3.285061 20,400 182 415 2432
2019-03-19 14:05:35 GMT 50.910553 -3.284764 20,350 181 415 2304
2019-03-19 14:05:32 GMT 50.916279 -3.284683 19,725 181 413 2432
2019-03-19 14:05:29 GMT 50.931152 -3.284392 18,000 181 387 2240
2019-03-19 14:05:25 GMT 50.931152 -3.284392 19,850 181 412 2432
2019-03-19 14:05:20 GMT 50.937241 -3.284318 19,725 181 411 2112
2019-03-19 14:05:17 GMT 50.945976 -3.284225 19,550 181 409 1792
2019-03-19 14:05:14 GMT 50.950493 -3.284225 19,550 181 409 1792
2019-03-19 14:05:11 GMT 50.955753 -3.284225 19,450 181 406 1984
2019-03-19 14:05:08 GMT 50.960632 -3.284170 19,275 181 404 2176
2019-03-19 14:05:05 GMT 50.966972 -3.284149 19,175 181 403 2240
2019-03-19 14:05:02 GMT 50.973312 -3.284170 19,100 181 402 2240
2019-03-19 14:04:59 GMT 50.984802 -3.284149 18,975 181 400 2176
2019-03-19 14:04:56 GMT 50.984802 -3.284149 18,875 181 399 2176
2019-03-19 14:04:53 GMT 50.989223 -3.284073 18,650 181 398 2176
2019-03-19 14:04:50 GMT 50.993649 -3.284073 18,650 181 396 2176
2019-03-19 14:04:47 GMT 51.001701 -3.284073 18,600 181 396 2176
2019-03-19 14:04:44 GMT 51.005333 -3.284073 18,525 181 395 2176
2019-03-19 14:04:41 GMT 51.011536 -3.284021 18,350 181 389 2304
2019-03-19 14:04:38 GMT 51.016617 -3.284021 18,300 181 391 2368
2019-03-19 14:04:33 GMT 51.026001 -3.283947 18,050 181 389 2368
2019-03-19 14:04:30 GMT 51.033188 -3.283947 17,875 181 387 2240
2019-03-19 14:04:26 GMT 51.038910 -3.283873 17,725 181 385 2368
2019-03-19 14:04:22 GMT 51.044949 -3.283844 17,625 181 384 2496
2019-03-19 14:04:19 GMT 51.052769 -3.283844 17,450 181 383 2688
2019-03-19 14:04:16 GMT 51.062637 -3.283768 17,300 181 382 2752
2019-03-19 14:04:12 GMT 51.062637 -3.283768 16,950 181 380 2496
2019-03-19 14:04:09 GMT 51.068970 -3.283768 16,950 181 381 2688
2019-03-19 14:04:06 GMT 51.073902 -3.283691 16,975 181 379 2368
2019-03-19 14:04:03 GMT 51.078461 -3.283724 16,150 181 378 2304
2019-03-19 14:04:00 GMT 51.089264 -3.283615 16,625 179 371 3008
2019-03-19 14:03:54 GMT 51.095169 -3.283576 16,450 181 374 2752
2019-03-19 14:03:50 GMT 51.101395 -3.283576 16,375 181 373 2880
2019-03-19 14:03:46 GMT 51.108261 -3.283576 15,925 179 372 3072
2019-03-19 14:03:43 GMT 51.113800 -3.283576 15,850 179 371 3008
2019-03-19 14:03:40 GMT 51.118919 -3.283539 15,775 179 371 2880
2019-03-19 14:03:36 GMT 51.126461 -3.283615 15,575 179 370 2688
2019-03-19 14:03:29 GMT 51.136703 -3.283691 15,325 179 368 2624
2019-03-19 14:03:25 GMT 51.144516 -3.283799 15,200 179 367 2624
2019-03-19 14:03:22 GMT 51.149231 -3.283799 15,000 179 365 3008
2019-03-19 14:03:18 GMT 51.156647 -3.283873 14,775 181 364 3072
2019-03-19 14:03:15 GMT 51.161003 -3.283691 14,650 183 363 2880
2019-03-19 14:03:12 GMT 51.167007 -3.283157 14,400 189 360 2816
2019-03-19 14:03:09 GMT 51.171341 -3.282314 14,350 191 359 2880
2019-03-19 14:03:05 GMT 51.181950 -3.278351 14,000 200 356 2816
2019-03-19 14:03:02 GMT 51.188416 -3.274445 13,850 206 353 2432
2019-03-19 14:02:59 GMT 51.188416 -3.274445 13,850 207 353 2432
2019-03-19 14:02:55 GMT 51.192799 -3.271027 13,675 210 351 2368
2019-03-19 14:02:52 GMT 51.197021 -3.267171 13,625 213 349 2368
2019-03-19 14:02:48 GMT 51.202286 -3.261306 13,350 221 345 2560
2019-03-19 14:02:45 GMT 51.206951 -3.255081 13,300 224 343 2624
2019-03-19 14:02:41 GMT 51.210754 -3.248984 13,125 228 341 2752
2019-03-19 14:02:38 GMT 51.213421 -3.244095 13,000 232 340 2752
2019-03-19 14:02:35 GMT 51.216770 -3.236923 12,850 238 337 2752
2019-03-19 14:02:32 GMT 51.222198 -3.221963 12,475 242 334 2688
2019-03-19 14:02:27 GMT 51.222198 -3.221963 12,450 244 332 2880
2019-03-19 14:02:24 GMT 51.224594 -3.214493 12,325 244 332 2880
2019-03-19 14:02:21 GMT 51.226639 -3.207934 12,275 244 331 2944
2019-03-19 14:02:17 GMT 51.229431 -3.199248 11,925 243 330 3072
2019-03-19 14:02:13 GMT 51.232224 -3.190563 11,825 244 330 3008
2019-03-19 14:02:10 GMT 51.234146 -3.184476 11,525 243 330 3072
2019-03-19 14:02:07 GMT 51.236618 -3.176682 11,425 243 329 3072
2019-03-19 14:02:04 GMT 51.238976 -3.169327 11,250 243 329 2752
2019-03-19 14:02:00 GMT 51.240932 -3.163300 11,100 243 329 2752
2019-03-19 14:01:57 GMT 51.245586 -3.148651 11,000 244 326 1472
2019-03-19 14:01:54 GMT 51.248009 -3.141022 10,925 244 321 960
2019-03-19 14:01:50 GMT 51.248009 -3.141022 10,900 244 320 960
2019-03-19 14:01:47 GMT 51.250149 -3.134308 10,825 244 310 1216
2019-03-19 14:01:44 GMT 51.252525 -3.126831 10,775 244 311 1152
2019-03-19 14:01:40 GMT 51.254852 -3.119431 10,750 244 309 1216
2019-03-19 14:01:36 GMT 51.257263 -3.111803 10,625 244 293 896
2019-03-19 14:01:33 GMT 51.259136 -3.105774 10,575 244 300 640
2019-03-19 14:01:29 GMT 51.261246 -3.099110 10,550 244 296 576
2019-03-19 14:01:26 GMT 51.263672 -3.091389 10,500 244 289 1664
2019-03-19 14:01:23 GMT 51.265232 -3.086395 10,425 244 287 2176
2019-03-19 14:01:20 GMT 51.267372 -3.079605 10,275 244 286 3072
2019-03-19 14:01:15 GMT 51.269981 -3.071289 10,050 244 286 3008
2019-03-19 14:01:10 GMT 51.273052 -3.061523 9,275 244 284 2944
2019-03-19 14:01:07 GMT 51.274918 -3.055496 9,750 244 284 2944
2019-03-19 14:01:03 GMT 51.277130 -3.048335 9,325 244 284 3072
2019-03-19 14:00:59 GMT 51.279572 -3.040466 9,225 244 283 3072
2019-03-19 14:00:53 GMT 51.283127 -3.028812 8,650 244 283 3072
2019-03-19 14:00:50 GMT 51.284645 -3.023911 8,800 241 283 3008
2019-03-19 14:00:47 GMT 51.285965 -3.019904 8,675 242 283 3008
2019-03-19 14:00:43 GMT 51.289169 -3.011219 7,650 233 283 2944
2019-03-19 14:00:39 GMT 51.292606 -3.003311 8,225 233 283 2944
2019-03-19 14:00:36 GMT 51.294144 -2.999954 8,125 232 284 2944
2019-03-19 14:00:33 GMT 51.296951 -2.994443 7,950 229 284 2816
2019-03-19 14:00:27 GMT 51.302307 -2.985164 7,750 227 284 2624
2019-03-19 14:00:24 GMT 51.305176 -2.980804 7,575 223 283 1984
2019-03-19 14:00:21 GMT 51.307877 -2.976913 7,475 222 279 1664
2019-03-19 14:00:18 GMT 51.310730 -2.972767 7,375 223 263 1088
2019-03-19 14:00:15 GMT 51.313972 -2.968140 7,050 223 263 1088
2019-03-19 14:00:12 GMT 51.316582 -2.964325 7,200 223 271 2368
2019-03-19 14:00:07 GMT 51.320679 -2.958450 7,050 223 268 1536
2019-03-19 14:00:02 GMT 51.325562 -2.951314 6,925 223 260 896
2019-03-19 13:59:59 GMT 51.327847 -2.947922 6,875 223 255 768
2019-03-19 13:59:56 GMT 51.331291 -2.942810 6,825 223 248 1152
2019-03-19 13:59:52 GMT 51.334270 -2.938385 6,725 223 241 2176
2019-03-19 13:59:49 GMT 51.336731 -2.934760 6,450 223 238 2624
2019-03-19 13:59:45 GMT 51.339661 -2.930455 6,500 223 237 2624
2019-03-19 13:59:42 GMT 51.345795 -2.921472 6,300 223 235 2496
2019-03-19 13:59:38 GMT 51.345795 -2.921472 6,050 222 233 2240
2019-03-19 13:59:35 GMT 51.348038 -2.918206 6,000 222 232 2240
2019-03-19 13:59:32 GMT 51.350143 -2.915268 5,950 222 231 2304
2019-03-19 13:59:27 GMT 51.354126 -2.909595 5,750 221 228 2688
2019-03-19 13:59:24 GMT 51.356850 -2.905884 5,475 220 227 3072
2019-03-19 13:59:20 GMT 51.360214 -2.901356 5,150 221 226 3136
2019-03-19 13:59:17 GMT 51.365227 -2.894745 5,075 222 226 3072
2019-03-19 13:59:13 GMT 51.365227 -2.894745 4,850 225 226 2944
2019-03-19 13:59:10 GMT 51.367538 -2.891260 4,850 225 226 2944
2019-03-19 13:59:06 GMT 51.372955 -2.879257 4,575 241 223 2752
2019-03-19 13:59:01 GMT 51.372955 -2.879257 4,475 245 221 2496
2019-03-19 13:58:57 GMT 51.374542 -2.872851 4,300 255 219 1856
2019-03-19 13:58:54 GMT 51.375275 -2.867877 4,200 262 214 1664
2019-03-19 13:58:50 GMT 51.376076 -2.855148 3,950 266 206 1984
2019-03-19 13:58:46 GMT 51.376076 -2.855148 3,950 266 206 1984
2019-03-19 13:58:43 GMT 51.376213 -2.851562 3,800 266 203 2048
2019-03-19 13:58:40 GMT 51.376446 -2.846756 3,750 267 201 2432
2019-03-19 13:58:36 GMT 51.376724 -2.840805 3,400 267 200 3264
2019-03-19 13:58:33 GMT 51.376877 -2.836403 3,400 267 200 3392
2019-03-19 13:58:30 GMT 51.377007 -2.831955 2,850 267 200 3392
2019-03-19 13:58:25 GMT 51.377289 -2.824600 2,950 267 201 3520
2019-03-19 13:58:20 GMT 51.377518 -2.816880 2,625 267 202 2944
2019-03-19 13:58:14 GMT 51.377842 -2.808762 2,400 267 199 1664
2019-03-19 13:58:11 GMT 51.378021 -2.803815 2,350 267 199 1664
2019-03-19 13:58:08 GMT 51.378216 -2.799454 2,175 266 188 1024
2019-03-19 13:58:05 GMT 51.378433 -2.794090 2,175 266 180 1152

Making use of Plane Finder data

You are free to use the raw flight data, aircraft information and images provided in this report for your own purposes provided the data is correctly attributed to Plane Finder. We ask that you please credit Plane Finder and link to planefinder.net in close proximity to the content.

Optionally one of the following logos (no smaller then 150x24px) can be used and must link to planefinder.net

Embedding the Plane Finder map

You are welcome to embed the Plane Finder playback map on your website to offer visitors a more interactive experience. We suggest using the following HTML code:

<iframe src="//planefinder.net/data/report/FR8121-EI-DYL-7700-squawk-2019-03-19/map" width="800" height="600" seamless="seamless"></iframe>

Where our data comes from

Plane Finder has a global network of data feeds and antenna radars that receive data broadcast directly from aircraft. The primary technologies used are ADS-B and MLAT. We also show feeds from the FAA and a FLARM glider feed.

Click here to find out more about the Plane Finder network.

How we collect our data